createdAt,value
2019-03-08T00:00:03.139Z,5.9
2019-03-08T00:05:03.149Z,5.9
2019-03-08T00:10:02.570Z,5.9
2019-03-08T00:15:03.022Z,5.9
2019-03-08T00:20:02.440Z,5.9
2019-03-08T00:25:02.016Z,5.9
2019-03-08T00:30:02.403Z,6.0
2019-03-08T00:35:03.199Z,5.9
2019-03-08T00:40:01.865Z,6.0
2019-03-08T00:45:03.214Z,6.0
2019-03-08T00:50:02.551Z,6.0
2019-03-08T00:55:02.979Z,6.0
2019-03-08T01:00:02.392Z,6.0
2019-03-08T01:05:02.636Z,5.9
2019-03-08T01:10:03.081Z,5.5
2019-03-08T01:15:02.411Z,5.5
2019-03-08T01:20:02.834Z,5.4
2019-03-08T01:25:03.182Z,5.4
2019-03-08T01:30:02.516Z,5.4
2019-03-08T01:35:02.937Z,5.4
2019-03-08T01:40:02.354Z,5.5
2019-03-08T01:45:03.824Z,5.5
2019-03-08T01:50:03.251Z,5.5
2019-03-08T01:55:02.657Z,5.5
2019-03-08T02:00:03.083Z,5.8
2019-03-08T02:05:02.415Z,5.8
2019-03-08T02:10:02.971Z,5.8
2019-03-08T02:15:02.390Z,5.8
2019-03-08T02:20:02.838Z,5.8
2019-03-08T02:25:03.278Z,5.8
2019-03-08T02:30:02.995Z,5.8
2019-03-08T02:35:02.420Z,5.5
2019-03-08T02:40:02.873Z,5.4
2019-03-08T02:45:03.317Z,5.8
2019-03-08T02:50:02.930Z,5.9
2019-03-08T02:55:03.264Z,6.6
2019-03-08T03:00:02.729Z,6.9
2019-03-08T03:05:03.153Z,6.9
2019-03-08T03:10:02.598Z,7.0
2019-03-08T03:15:03.046Z,6.9
2019-03-08T03:20:01.682Z,6.9
2019-03-08T03:25:03.008Z,6.9
2019-03-08T03:30:02.703Z,6.9
2019-03-08T03:35:03.039Z,7.0
2019-03-08T03:40:02.486Z,7.0
2019-03-08T03:45:02.911Z,7.0
2019-03-08T03:50:03.230Z,7.0
2019-03-08T03:55:02.666Z,7.0
2019-03-08T04:00:03.109Z,7.0
2019-03-08T04:05:02.513Z,7.0
2019-03-08T04:10:03.163Z,6.9
2019-03-08T04:15:02.599Z,6.9
2019-03-08T04:20:03.028Z,7.0
2019-03-08T04:25:02.486Z,6.9
2019-03-08T04:30:02.890Z,6.9
2019-03-08T04:35:03.348Z,6.9
2019-03-08T04:40:02.840Z,6.9
2019-03-08T04:45:03.197Z,6.5
2019-03-08T04:50:02.816Z,6.4
2019-03-08T04:55:03.262Z,6.1
2019-03-08T05:00:02.684Z,6.4
2019-03-08T05:05:03.027Z,6.4
2019-03-08T05:10:02.562Z,6.4
2019-03-08T05:15:02.992Z,6.5
2019-03-08T05:20:02.412Z,6.5
2019-03-08T05:25:02.750Z,6.4
2019-03-08T05:30:02.675Z,6.4
2019-03-08T05:35:03.017Z,6.5
2019-03-08T05:40:02.546Z,6.4
2019-03-08T05:45:03.000Z,6.4
2019-03-08T05:50:02.402Z,6.4
2019-03-08T05:55:02.901Z,6.5
2019-03-08T06:00:03.344Z,6.5
2019-03-08T06:05:02.700Z,6.4
2019-03-08T06:10:03.155Z,6.5
2019-03-08T06:15:02.580Z,6.5
2019-03-08T06:20:03.013Z,6.5
2019-03-08T06:25:02.647Z,6.5
2019-03-08T06:30:03.090Z,6.5
2019-03-08T06:35:02.504Z,6.5
2019-03-08T06:40:02.936Z,6.5
2019-03-08T06:45:03.286Z,6.5
2019-03-08T06:50:02.779Z,6.5
2019-03-08T06:55:03.147Z,6.5
2019-03-08T07:00:02.489Z,6.5
2019-03-08T07:05:02.912Z,6.6
2019-03-08T07:10:02.426Z,6.6
2019-03-08T07:15:02.767Z,6.6
2019-03-08T07:20:03.216Z,6.6
2019-03-08T07:25:02.630Z,6.9
2019-03-08T07:30:02.985Z,6.9
2019-03-08T07:35:02.396Z,6.9
2019-03-08T07:40:02.834Z,7.0
2019-03-08T07:45:03.339Z,7.0
2019-03-08T07:50:02.692Z,6.9
2019-03-08T07:55:03.165Z,6.9
2019-03-08T08:00:02.579Z,7.1
2019-03-08T08:05:03.316Z,7.4
2019-03-08T08:10:02.869Z,7.4
2019-03-08T08:15:03.287Z,7.6
2019-03-08T08:20:02.703Z,7.4
2019-03-08T08:25:03.206Z,6.9
2019-03-08T08:30:02.558Z,7.1
2019-03-08T08:35:03.012Z,5.5
2019-03-08T08:40:03.034Z,5.3
2019-03-08T08:45:01.656Z,5.0
2019-03-08T08:50:03.005Z,5.0
2019-03-08T08:55:02.417Z,5.0
2019-03-08T09:00:02.771Z,5.0
2019-03-08T09:05:03.243Z,5.0
2019-03-08T09:10:02.722Z,5.8
2019-03-08T09:15:03.068Z,6.5
2019-03-08T09:20:02.829Z,6.4
2019-03-08T09:25:03.237Z,6.6
2019-03-08T09:30:02.682Z,6.5
2019-03-08T09:35:03.099Z,6.5
2019-03-08T09:40:02.505Z,6.6
2019-03-08T09:45:02.970Z,6.6
2019-03-08T09:50:02.384Z,6.4
2019-03-08T09:55:02.826Z,7.4
2019-03-08T10:00:02.584Z,7.4
2019-03-08T10:05:02.191Z,6.5
2019-03-08T10:10:02.618Z,6.5
2019-03-08T10:15:03.077Z,7.1
2019-03-08T10:20:02.411Z,8.0
2019-03-08T10:25:02.826Z,9.6
2019-03-08T10:30:03.265Z,8.5
2019-03-08T10:35:02.601Z,9.0
2019-03-08T10:40:03.337Z,9.8
2019-03-08T10:45:02.661Z,9.3
2019-03-08T10:50:03.135Z,10.1
2019-03-08T10:55:02.509Z,10.3
2019-03-08T11:00:02.856Z,9.6
2019-03-08T11:05:03.200Z,10.8
2019-03-08T11:10:02.958Z,11.1
2019-03-08T11:15:02.334Z,11.8
2019-03-08T11:20:02.175Z,10.6
2019-03-08T11:25:08.308Z,11.0
2019-03-08T11:30:03.160Z,10.8
2019-03-08T11:35:02.569Z,10.0
2019-03-08T11:40:03.014Z,10.0
2019-03-08T11:45:02.454Z,9.0
2019-03-08T11:50:02.880Z,8.1
2019-03-08T11:55:03.327Z,9.3
2019-03-08T12:00:02.839Z,10.1
2019-03-08T12:05:03.189Z,11.0
2019-03-08T12:10:02.599Z,11.1
2019-03-08T12:15:02.147Z,10.1
2019-03-08T12:20:01.900Z,9.8
2019-03-08T12:25:03.325Z,9.3
2019-03-08T12:30:04.386Z,9.5
2019-03-08T12:35:02.905Z,9.5
2019-03-08T12:40:02.429Z,9.5
2019-03-08T12:45:02.839Z,9.5
2019-03-08T12:50:03.283Z,9.3
2019-03-08T12:55:02.761Z,9.0
2019-03-08T13:00:03.145Z,8.6
2019-03-08T13:05:02.770Z,9.1
2019-03-08T13:10:03.230Z,10.1
2019-03-08T13:15:02.624Z,11.0
2019-03-08T13:20:03.090Z,11.1
2019-03-08T13:25:02.506Z,12.8
2019-03-08T13:30:02.933Z,12.1
2019-03-08T13:35:03.277Z,12.8
2019-03-08T13:40:02.688Z,11.3
2019-03-08T13:45:03.244Z,10.1
2019-03-08T13:50:02.652Z,11.3
2019-03-08T13:55:03.023Z,11.3
2019-03-08T14:00:02.405Z,12.8
2019-03-08T14:05:02.839Z,12.5
2019-03-08T14:10:03.312Z,11.6
2019-03-08T14:15:02.692Z,11.8
2019-03-08T14:20:03.071Z,12.1
2019-03-08T14:25:02.527Z,12.8
2019-03-08T14:30:02.939Z,12.3
2019-03-08T14:35:03.383Z,11.0
2019-03-08T14:40:02.784Z,10.5
2019-03-08T14:45:07.291Z,10.8
2019-03-08T14:50:03.263Z,10.8
2019-03-08T14:55:02.683Z,10.3
2019-03-08T15:00:03.021Z,10.3
2019-03-08T15:05:10.655Z,10.6
2019-03-08T15:10:06.053Z,10.3
2019-03-08T15:15:03.003Z,10.3
2019-03-08T15:20:02.346Z,10.1
2019-03-08T15:25:02.782Z,10.1
2019-03-08T15:30:03.127Z,9.8
2019-03-08T15:35:02.546Z,9.6
2019-03-08T15:40:03.158Z,9.6
2019-03-08T15:45:05.715Z,9.6
2019-03-08T15:50:04.566Z,9.6
2019-03-08T15:55:02.380Z,9.6
2019-03-08T16:00:02.815Z,9.6
2019-03-08T16:05:03.856Z,9.8
2019-03-08T16:10:02.362Z,9.5
2019-03-08T16:15:02.742Z,9.5
2019-03-08T16:20:03.948Z,9.3
2019-03-08T16:25:06.617Z,9.3
2019-03-08T16:30:09.408Z,9.1
2019-03-08T16:35:02.945Z,9.1
2019-03-08T16:40:02.381Z,9.0
2019-03-08T16:45:02.720Z,9.0
2019-03-08T16:50:03.191Z,8.8
2019-03-08T16:55:02.599Z,8.8
2019-03-08T17:00:02.927Z,8.6
2019-03-08T17:05:02.638Z,8.6
2019-03-08T17:10:03.079Z,8.6
2019-03-08T17:15:02.412Z,8.5
2019-03-08T17:20:02.039Z,8.5
2019-03-08T17:25:01.569Z,8.5
2019-03-08T17:30:03.023Z,8.5
2019-03-08T17:35:02.406Z,8.3
2019-03-08T17:40:02.874Z,8.3
2019-03-08T17:45:03.337Z,8.1
2019-03-08T17:50:02.737Z,8.0
2019-03-08T17:55:03.181Z,8.0
2019-03-08T18:00:02.590Z,8.0
2019-03-08T18:05:03.244Z,8.0
2019-03-08T18:10:02.655Z,7.9
2019-03-08T18:15:03.002Z,7.9
2019-03-08T18:20:01.524Z,7.9
2019-03-08T18:25:03.024Z,8.0
2019-03-08T18:30:02.551Z,7.9
2019-03-08T18:35:02.881Z,7.9
2019-03-08T18:40:03.269Z,7.6
2019-03-08T18:45:02.693Z,7.5
2019-03-08T18:50:03.030Z,7.4
2019-03-08T18:55:02.490Z,7.4
2019-03-08T19:00:02.935Z,7.4
2019-03-08T19:05:02.556Z,7.0
2019-03-08T19:10:03.004Z,7.0
2019-03-08T19:15:02.355Z,7.0
2019-03-08T19:20:02.720Z,7.0
2019-03-08T19:25:03.142Z,6.9
2019-03-08T19:30:02.590Z,6.9
2019-03-08T19:35:03.334Z,6.9
2019-03-08T19:40:01.951Z,6.9
2019-03-08T19:45:02.480Z,6.9
2019-03-08T19:50:02.955Z,6.9
2019-03-08T19:55:02.448Z,7.0
2019-03-08T20:00:03.257Z,7.0
2019-03-08T20:05:02.994Z,7.0
2019-03-08T20:10:02.511Z,7.1
2019-03-08T20:15:03.032Z,7.1
2019-03-08T20:20:02.798Z,7.1
2019-03-08T20:25:03.272Z,7.1
2019-03-08T20:30:02.698Z,7.1
2019-03-08T20:35:03.163Z,7.4
2019-03-08T20:40:02.653Z,7.4
2019-03-08T20:45:03.284Z,7.5
2019-03-08T20:50:02.768Z,7.5
2019-03-08T20:55:03.216Z,7.5
2019-03-08T21:00:02.574Z,7.5
2019-03-08T21:05:03.331Z,7.6
2019-03-08T21:10:02.897Z,7.6
2019-03-08T21:15:03.383Z,7.6
2019-03-08T21:20:04.749Z,7.6
2019-03-08T21:25:03.241Z,7.6
2019-03-08T21:30:03.645Z,7.9
2019-03-08T21:35:03.091Z,7.6
2019-03-08T21:40:02.577Z,7.6
2019-03-08T21:45:02.992Z,7.6
2019-03-08T21:50:02.456Z,7.6
2019-03-08T21:55:03.192Z,7.6
2019-03-08T22:00:02.746Z,6.1
2019-03-08T22:05:03.150Z,5.8
2019-03-08T22:10:02.604Z,5.4
2019-03-08T22:15:03.068Z,5.4
2019-03-08T22:20:02.643Z,5.3
2019-03-08T22:25:03.196Z,5.3
2019-03-08T22:30:02.623Z,5.3
2019-03-08T22:35:03.026Z,5.4
2019-03-08T22:40:02.558Z,5.4
2019-03-08T22:45:03.018Z,5.4
2019-03-08T22:50:02.399Z,5.5
2019-03-08T22:55:02.735Z,5.5
2019-03-08T23:00:03.179Z,5.8
2019-03-08T23:05:02.573Z,5.8
2019-03-08T23:10:03.023Z,5.8
2019-03-08T23:15:02.460Z,5.8
2019-03-08T23:20:03.150Z,5.8
2019-03-08T23:25:01.845Z,5.8
2019-03-08T23:30:03.224Z,5.5
2019-03-08T23:35:02.693Z,5.8
2019-03-08T23:40:03.129Z,5.8
2019-03-08T23:45:02.586Z,5.8
2019-03-08T23:50:02.980Z,5.8
2019-03-08T23:55:02.355Z,5.8
